Half Day, Illinois
Current Conditions -  °F | °C
As of 9:52 AM on Friday 19 Dec 2014 (Local Time) from KPWK Reporting Station
Overcast Overcast  
Wind Chill: -5°   Ceiling: 2300
Heat Index: -2°   Visibility: 8mi
Dew Point: -6°   Wind: 5mph
Humidity: 75%   Direction: 320°NW
Pressure: 30.34"   Gusts: NA
Location:  42.1941°N, 87.9317°W
Report Text: KPWK 191552Z 32004KT 8SM OVC023 M02/M06 A3034 RMK AO2 SLP282 T10221061
Loading
Personal Weather Stations






























Interactive Weather Map New forecast layout! Learn more

10-Day Weather Forecast

Advertisements
Track Severe Weather on mobile